sensor_id;sensor_type;location;lat;lon;timestamp;temperature;humidity
70986;DHT22;58645;43.068;25.610;2024-03-29T00:00:39;10.20;99.90
70986;DHT22;58645;43.068;25.610;2024-03-29T00:03:06;10.20;99.90
70986;DHT22;58645;43.068;25.610;2024-03-29T00:05:35;10.20;99.90
70986;DHT22;58645;43.068;25.610;2024-03-29T00:08:01;10.20;99.90
70986;DHT22;58645;43.068;25.610;2024-03-29T00:10:27;10.20;99.90
70986;DHT22;58645;43.068;25.610;2024-03-29T00:12:53;10.20;99.90
70986;DHT22;58645;43.068;25.610;2024-03-29T00:15:18;10.20;99.90
70986;DHT22;58645;43.068;25.610;2024-03-29T00:17:44;10.10;99.90
70986;DHT22;58645;43.068;25.610;2024-03-29T00:20:10;10.10;99.90
70986;DHT22;58645;43.068;25.610;2024-03-29T00:22:37;10.10;99.90
70986;DHT22;58645;43.068;25.610;2024-03-29T00:25:03;10.10;99.90
70986;DHT22;58645;43.068;25.610;2024-03-29T00:27:29;10.10;99.90
70986;DHT22;58645;43.068;25.610;2024-03-29T00:29:56;10.10;99.90
70986;DHT22;58645;43.068;25.610;2024-03-29T00:32:22;10.10;99.90
70986;DHT22;58645;43.068;25.610;2024-03-29T00:34:52;10.10;99.90
70986;DHT22;58645;43.068;25.610;2024-03-29T00:37:18;10.00;99.90
70986;DHT22;58645;43.068;25.610;2024-03-29T00:39:44;9.90;99.90
70986;DHT22;58645;43.068;25.610;2024-03-29T00:42:10;9.80;99.90
70986;DHT22;58645;43.068;25.610;2024-03-29T00:44:42;9.80;99.90
70986;DHT22;58645;43.068;25.610;2024-03-29T00:47:09;9.80;99.90
70986;DHT22;58645;43.068;25.610;2024-03-29T00:49:35;9.80;99.90
70986;DHT22;58645;43.068;25.610;2024-03-29T00:52:01;9.80;99.90
70986;DHT22;58645;43.068;25.610;2024-03-29T00:54:27;9.70;99.90
70986;DHT22;58645;43.068;25.610;2024-03-29T00:56:53;9.70;99.90
70986;DHT22;58645;43.068;25.610;2024-03-29T00:59:19;9.70;99.90
70986;DHT22;58645;43.068;25.610;2024-03-29T01:01:46;9.60;99.90
70986;DHT22;58645;43.068;25.610;2024-03-29T01:04:12;9.60;99.90
70986;DHT22;58645;43.068;25.610;2024-03-29T01:06:39;9.60;99.90
70986;DHT22;58645;43.068;25.610;2024-03-29T01:09:06;9.60;99.90
70986;DHT22;58645;43.068;25.610;2024-03-29T01:11:32;9.50;99.90
70986;DHT22;58645;43.068;25.610;2024-03-29T01:13:58;9.50;99.90
70986;DHT22;58645;43.068;25.610;2024-03-29T01:16:24;9.50;99.90
70986;DHT22;58645;43.068;25.610;2024-03-29T01:18:50;9.50;99.90
70986;DHT22;58645;43.068;25.610;2024-03-29T01:21:17;9.40;99.90
70986;DHT22;58645;43.068;25.610;2024-03-29T01:23:44;9.40;99.90
70986;DHT22;58645;43.068;25.610;2024-03-29T01:26:10;9.40;99.90
70986;DHT22;58645;43.068;25.610;2024-03-29T01:28:38;9.40;99.90
70986;DHT22;58645;43.068;25.610;2024-03-29T01:31:05;9.40;99.90
70986;DHT22;58645;43.068;25.610;2024-03-29T01:33:30;9.40;99.90
70986;DHT22;58645;43.068;25.610;2024-03-29T01:36:09;9.30;99.90
70986;DHT22;58645;43.068;25.610;2024-03-29T01:38:35;9.30;99.90
70986;DHT22;58645;43.068;25.610;2024-03-29T01:41:00;9.30;99.90
70986;DHT22;58645;43.068;25.610;2024-03-29T01:43:26;9.20;99.90
70986;DHT22;58645;43.068;25.610;2024-03-29T01:45:56;9.20;99.90
70986;DHT22;58645;43.068;25.610;2024-03-29T01:48:23;9.20;99.90
70986;DHT22;58645;43.068;25.610;2024-03-29T01:50:50;9.20;99.90
70986;DHT22;58645;43.068;25.610;2024-03-29T01:53:18;9.20;99.90
70986;DHT22;58645;43.068;25.610;2024-03-29T01:55:45;9.20;99.90
70986;DHT22;58645;43.068;25.610;2024-03-29T01:58:11;9.20;99.90
70986;DHT22;58645;43.068;25.610;2024-03-29T02:00:38;9.10;99.90
70986;DHT22;58645;43.068;25.610;2024-03-29T02:03:05;9.10;99.90
70986;DHT22;58645;43.068;25.610;2024-03-29T02:05:36;9.10;99.90
70986;DHT22;58645;43.068;25.610;2024-03-29T02:08:04;9.10;99.90
70986;DHT22;58645;43.068;25.610;2024-03-29T02:10:30;9.10;99.90
70986;DHT22;58645;43.068;25.610;2024-03-29T02:12:55;9.10;99.90
70986;DHT22;58645;43.068;25.610;2024-03-29T02:15:21;9.00;99.90
70986;DHT22;58645;43.068;25.610;2024-03-29T02:17:47;9.00;99.90
70986;DHT22;58645;43.068;25.610;2024-03-29T02:20:12;8.90;99.90
70986;DHT22;58645;43.068;25.610;2024-03-29T02:22:44;9.00;99.90
70986;DHT22;58645;43.068;25.610;2024-03-29T02:25:12;8.90;99.90
70986;DHT22;58645;43.068;25.610;2024-03-29T02:27:38;8.90;99.90
70986;DHT22;58645;43.068;25.610;2024-03-29T02:30:05;9.00;99.90
70986;DHT22;58645;43.068;25.610;2024-03-29T02:32:31;8.90;99.90
70986;DHT22;58645;43.068;25.610;2024-03-29T02:34:56;8.90;99.90
70986;DHT22;58645;43.068;25.610;2024-03-29T02:37:22;8.80;99.90
70986;DHT22;58645;43.068;25.610;2024-03-29T02:39:48;8.80;99.90
70986;DHT22;58645;43.068;25.610;2024-03-29T02:42:13;8.70;99.90
70986;DHT22;58645;43.068;25.610;2024-03-29T02:44:39;8.70;99.90
70986;DHT22;58645;43.068;25.610;2024-03-29T02:47:05;8.70;99.90
70986;DHT22;58645;43.068;25.610;2024-03-29T02:49:30;8.70;99.90
70986;DHT22;58645;43.068;25.610;2024-03-29T02:51:56;8.70;99.90
70986;DHT22;58645;43.068;25.610;2024-03-29T02:54:22;8.60;99.90
70986;DHT22;58645;43.068;25.610;2024-03-29T02:56:48;8.60;99.90
70986;DHT22;58645;43.068;25.610;2024-03-29T02:59:14;8.50;99.90
70986;DHT22;58645;43.068;25.610;2024-03-29T03:01:40;8.50;99.90
70986;DHT22;58645;43.068;25.610;2024-03-29T03:04:06;8.50;99.90
70986;DHT22;58645;43.068;25.610;2024-03-29T03:06:31;8.50;99.90
70986;DHT22;58645;43.068;25.610;2024-03-29T03:08:57;8.50;99.90
70986;DHT22;58645;43.068;25.610;2024-03-29T03:11:41;8.50;99.90
70986;DHT22;58645;43.068;25.610;2024-03-29T03:14:07;8.50;99.90
70986;DHT22;58645;43.068;25.610;2024-03-29T03:16:33;8.50;99.90
70986;DHT22;58645;43.068;25.610;2024-03-29T03:18:59;8.50;99.90
70986;DHT22;58645;43.068;25.610;2024-03-29T03:21:25;8.40;99.90
70986;DHT22;58645;43.068;25.610;2024-03-29T03:23:51;8.40;99.90
70986;DHT22;58645;43.068;25.610;2024-03-29T03:26:16;8.40;99.90
70986;DHT22;58645;43.068;25.610;2024-03-29T03:28:42;8.40;99.90
70986;DHT22;58645;43.068;25.610;2024-03-29T03:31:08;8.40;99.90
70986;DHT22;58645;43.068;25.610;2024-03-29T03:33:34;8.30;99.90
70986;DHT22;58645;43.068;25.610;2024-03-29T03:36:00;8.30;99.90
70986;DHT22;58645;43.068;25.610;2024-03-29T03:38:26;8.30;99.90
70986;DHT22;58645;43.068;25.610;2024-03-29T03:40:51;8.30;99.90
70986;DHT22;58645;43.068;25.610;2024-03-29T03:43:17;8.30;99.90
70986;DHT22;58645;43.068;25.610;2024-03-29T03:45:43;8.30;99.90
70986;DHT22;58645;43.068;25.610;2024-03-29T03:48:10;8.30;99.90
70986;DHT22;58645;43.068;25.610;2024-03-29T03:50:37;8.30;99.90
70986;DHT22;58645;43.068;25.610;2024-03-29T03:53:03;8.30;99.90
70986;DHT22;58645;43.068;25.610;2024-03-29T03:55:29;8.30;99.90
70986;DHT22;58645;43.068;25.610;2024-03-29T03:57:55;8.30;99.90
70986;DHT22;58645;43.068;25.610;2024-03-29T04:00:22;8.30;99.90
70986;DHT22;58645;43.068;25.610;2024-03-29T04:02:51;8.20;99.90
70986;DHT22;58645;43.068;25.610;2024-03-29T04:05:20;8.30;99.90
70986;DHT22;58645;43.068;25.610;2024-03-29T04:07:46;8.20;99.90
70986;DHT22;58645;43.068;25.610;2024-03-29T04:10:12;8.20;99.90
70986;DHT22;58645;43.068;25.610;2024-03-29T04:12:38;8.20;99.90
70986;DHT22;58645;43.068;25.610;2024-03-29T04:15:05;8.20;99.90
70986;DHT22;58645;43.068;25.610;2024-03-29T04:17:31;8.20;99.90
70986;DHT22;58645;43.068;25.610;2024-03-29T04:20:00;8.10;99.90
70986;DHT22;58645;43.068;25.610;2024-03-29T04:22:30;8.10;99.90
70986;DHT22;58645;43.068;25.610;2024-03-29T04:24:56;8.10;99.90
70986;DHT22;58645;43.068;25.610;2024-03-29T04:27:22;8.20;99.90
70986;DHT22;58645;43.068;25.610;2024-03-29T04:29:51;8.30;99.90
70986;DHT22;58645;43.068;25.610;2024-03-29T04:32:17;8.40;99.90
70986;DHT22;58645;43.068;25.610;2024-03-29T04:34:46;8.40;99.90
70986;DHT22;58645;43.068;25.610;2024-03-29T04:37:12;8.50;99.90
70986;DHT22;58645;43.068;25.610;2024-03-29T04:39:38;8.50;99.90
70986;DHT22;58645;43.068;25.610;2024-03-29T04:42:03;8.60;99.90
70986;DHT22;58645;43.068;25.610;2024-03-29T04:44:29;8.70;99.90
70986;DHT22;58645;43.068;25.610;2024-03-29T04:46:59;8.60;99.90
70986;DHT22;58645;43.068;25.610;2024-03-29T04:49:24;8.70;99.90
70986;DHT22;58645;43.068;25.610;2024-03-29T04:51:57;8.70;99.90
70986;DHT22;58645;43.068;25.610;2024-03-29T04:54:23;8.80;99.90
70986;DHT22;58645;43.068;25.610;2024-03-29T04:56:49;8.90;99.90
70986;DHT22;58645;43.068;25.610;2024-03-29T04:59:16;9.00;99.90
70986;DHT22;58645;43.068;25.610;2024-03-29T05:01:52;9.20;99.90
70986;DHT22;58645;43.068;25.610;2024-03-29T05:04:25;9.40;99.90
70986;DHT22;58645;43.068;25.610;2024-03-29T05:06:52;9.70;99.90
70986;DHT22;58645;43.068;25.610;2024-03-29T05:09:18;10.10;99.90
70986;DHT22;58645;43.068;25.610;2024-03-29T05:11:45;10.40;99.90
70986;DHT22;58645;43.068;25.610;2024-03-29T05:14:15;10.80;99.90
70986;DHT22;58645;43.068;25.610;2024-03-29T05:16:44;11.50;99.90
70986;DHT22;58645;43.068;25.610;2024-03-29T05:19:11;12.10;99.90
70986;DHT22;58645;43.068;25.610;2024-03-29T05:21:37;12.50;99.90
70986;DHT22;58645;43.068;25.610;2024-03-29T05:24:03;13.00;99.90
70986;DHT22;58645;43.068;25.610;2024-03-29T05:26:29;13.60;99.90
70986;DHT22;58645;43.068;25.610;2024-03-29T05:28:56;14.10;99.90
70986;DHT22;58645;43.068;25.610;2024-03-29T05:31:24;14.80;99.90
70986;DHT22;58645;43.068;25.610;2024-03-29T05:33:50;15.20;96.10
70986;DHT22;58645;43.068;25.610;2024-03-29T05:36:15;15.60;93.00
70986;DHT22;58645;43.068;25.610;2024-03-29T05:38:43;15.90;88.20
70986;DHT22;58645;43.068;25.610;2024-03-29T05:41:09;16.00;86.30
70986;DHT22;58645;43.068;25.610;2024-03-29T05:43:35;16.30;82.20
70986;DHT22;58645;43.068;25.610;2024-03-29T05:46:13;16.40;79.90
70986;DHT22;58645;43.068;25.610;2024-03-29T05:48:40;16.30;78.30
70986;DHT22;58645;43.068;25.610;2024-03-29T05:51:08;16.50;76.90
70986;DHT22;58645;43.068;25.610;2024-03-29T05:53:34;16.70;76.20
70986;DHT22;58645;43.068;25.610;2024-03-29T05:56:12;16.90;74.30
70986;DHT22;58645;43.068;25.610;2024-03-29T05:58:39;17.10;72.70
70986;DHT22;58645;43.068;25.610;2024-03-29T06:01:05;17.50;71.60
70986;DHT22;58645;43.068;25.610;2024-03-29T06:03:31;17.80;69.50
70986;DHT22;58645;43.068;25.610;2024-03-29T06:05:57;18.30;68.10
70986;DHT22;58645;43.068;25.610;2024-03-29T06:08:23;18.80;66.80
70986;DHT22;58645;43.068;25.610;2024-03-29T06:10:51;19.40;63.10
70986;DHT22;58645;43.068;25.610;2024-03-29T06:13:17;19.40;62.00
70986;DHT22;58645;43.068;25.610;2024-03-29T06:15:55;19.60;60.00
70986;DHT22;58645;43.068;25.610;2024-03-29T06:18:39;19.60;60.70
70986;DHT22;58645;43.068;25.610;2024-03-29T06:21:05;20.40;59.20
70986;DHT22;58645;43.068;25.610;2024-03-29T06:23:31;21.00;58.10
70986;DHT22;58645;43.068;25.610;2024-03-29T06:25:57;21.30;57.30
70986;DHT22;58645;43.068;25.610;2024-03-29T06:28:22;21.60;55.70
70986;DHT22;58645;43.068;25.610;2024-03-29T06:30:48;22.10;54.50
70986;DHT22;58645;43.068;25.610;2024-03-29T06:33:14;22.80;53.70
70986;DHT22;58645;43.068;25.610;2024-03-29T06:35:43;23.10;52.10
70986;DHT22;58645;43.068;25.610;2024-03-29T06:38:17;23.40;50.50
70986;DHT22;58645;43.068;25.610;2024-03-29T06:40:43;23.60;50.50
70986;DHT22;58645;43.068;25.610;2024-03-29T06:43:12;23.90;50.30
70986;DHT22;58645;43.068;25.610;2024-03-29T06:46:01;24.20;49.20
70986;DHT22;58645;43.068;25.610;2024-03-29T06:48:33;24.80;48.20
70986;DHT22;58645;43.068;25.610;2024-03-29T06:51:05;25.10;46.10
70986;DHT22;58645;43.068;25.610;2024-03-29T06:53:32;25.60;45.70
70986;DHT22;58645;43.068;25.610;2024-03-29T06:56:00;26.00;44.60
70986;DHT22;58645;43.068;25.610;2024-03-29T06:58:29;26.50;42.30
70986;DHT22;58645;43.068;25.610;2024-03-29T07:00:55;26.70;41.80
70986;DHT22;58645;43.068;25.610;2024-03-29T07:03:21;27.00;41.50
70986;DHT22;58645;43.068;25.610;2024-03-29T07:05:47;27.70;39.40
70986;DHT22;58645;43.068;25.610;2024-03-29T07:08:19;27.90;39.50
70986;DHT22;58645;43.068;25.610;2024-03-29T07:10:46;28.10;39.10
70986;DHT22;58645;43.068;25.610;2024-03-29T07:13:11;28.10;39.00
70986;DHT22;58645;43.068;25.610;2024-03-29T07:15:53;27.90;38.00
70986;DHT22;58645;43.068;25.610;2024-03-29T07:18:19;27.80;39.00
70986;DHT22;58645;43.068;25.610;2024-03-29T07:20:45;28.10;38.60
70986;DHT22;58645;43.068;25.610;2024-03-29T07:23:11;28.90;36.50
70986;DHT22;58645;43.068;25.610;2024-03-29T07:25:40;29.20;36.00
70986;DHT22;58645;43.068;25.610;2024-03-29T07:28:16;29.30;37.80
70986;DHT22;58645;43.068;25.610;2024-03-29T07:30:42;29.50;36.00
70986;DHT22;58645;43.068;25.610;2024-03-29T07:33:13;29.60;34.50
70986;DHT22;58645;43.068;25.610;2024-03-29T07:35:41;29.50;35.20
70986;DHT22;58645;43.068;25.610;2024-03-29T07:38:07;29.70;35.50
70986;DHT22;58645;43.068;25.610;2024-03-29T07:40:33;30.20;33.40
70986;DHT22;58645;43.068;25.610;2024-03-29T07:43:10;30.80;32.50
70986;DHT22;58645;43.068;25.610;2024-03-29T07:45:40;31.00;32.30
70986;DHT22;58645;43.068;25.610;2024-03-29T07:48:12;31.30;31.10
70986;DHT22;58645;43.068;25.610;2024-03-29T07:50:41;31.40;29.60
70986;DHT22;58645;43.068;25.610;2024-03-29T07:53:07;31.30;28.40
70986;DHT22;58645;43.068;25.610;2024-03-29T07:55:43;31.00;29.40
70986;DHT22;58645;43.068;25.610;2024-03-29T07:58:09;31.00;29.00
70986;DHT22;58645;43.068;25.610;2024-03-29T08:00:50;31.20;29.20
70986;DHT22;58645;43.068;25.610;2024-03-29T08:03:16;31.60;28.50
70986;DHT22;58645;43.068;25.610;2024-03-29T08:08:23;31.50;27.70
70986;DHT22;58645;43.068;25.610;2024-03-29T08:10:53;31.40;28.00
70986;DHT22;58645;43.068;25.610;2024-03-29T08:13:19;31.30;28.20
70986;DHT22;58645;43.068;25.610;2024-03-29T08:15:47;30.90;27.40
70986;DHT22;58645;43.068;25.610;2024-03-29T08:18:14;31.10;27.70
70986;DHT22;58645;43.068;25.610;2024-03-29T08:20:39;30.80;26.40
70986;DHT22;58645;43.068;25.610;2024-03-29T08:23:05;30.80;26.60
70986;DHT22;58645;43.068;25.610;2024-03-29T08:25:31;30.90;26.30
70986;DHT22;58645;43.068;25.610;2024-03-29T08:27:57;30.30;26.70
70986;DHT22;58645;43.068;25.610;2024-03-29T08:30:27;30.90;26.50
70986;DHT22;58645;43.068;25.610;2024-03-29T08:33:01;31.10;26.60
70986;DHT22;58645;43.068;25.610;2024-03-29T08:38:24;31.80;25.00
70986;DHT22;58645;43.068;25.610;2024-03-29T08:40:51;32.10;25.10
70986;DHT22;58645;43.068;25.610;2024-03-29T08:43:19;32.70;23.90
70986;DHT22;58645;43.068;25.610;2024-03-29T08:45:45;32.40;23.90
70986;DHT22;58645;43.068;25.610;2024-03-29T08:48:11;32.80;22.90
70986;DHT22;58645;43.068;25.610;2024-03-29T08:50:40;32.90;23.00
70986;DHT22;58645;43.068;25.610;2024-03-29T08:53:13;33.40;22.60
70986;DHT22;58645;43.068;25.610;2024-03-29T08:55:42;33.10;23.20
70986;DHT22;58645;43.068;25.610;2024-03-29T09:00:55;32.70;22.50
70986;DHT22;58645;43.068;25.610;2024-03-29T09:06:37;32.60;23.10
70986;DHT22;58645;43.068;25.610;2024-03-29T09:09:12;32.20;23.50
70986;DHT22;58645;43.068;25.610;2024-03-29T09:12:23;32.20;22.90
70986;DHT22;58645;43.068;25.610;2024-03-29T09:18:29;32.30;22.30
70986;DHT22;58645;43.068;25.610;2024-03-29T09:20:58;32.70;21.50
70986;DHT22;58645;43.068;25.610;2024-03-29T09:23:28;32.80;21.60
70986;DHT22;58645;43.068;25.610;2024-03-29T09:26:04;32.50;21.10
70986;DHT22;58645;43.068;25.610;2024-03-29T09:28:30;32.00;21.70
70986;DHT22;58645;43.068;25.610;2024-03-29T09:31:04;31.80;20.90
70986;DHT22;58645;43.068;25.610;2024-03-29T09:33:32;32.00;21.10
70986;DHT22;58645;43.068;25.610;2024-03-29T09:36:08;32.70;21.70
70986;DHT22;58645;43.068;25.610;2024-03-29T09:38:37;33.30;20.50
70986;DHT22;58645;43.068;25.610;2024-03-29T09:41:16;33.20;20.60
70986;DHT22;58645;43.068;25.610;2024-03-29T09:43:47;33.00;20.90
70986;DHT22;58645;43.068;25.610;2024-03-29T09:46:14;33.20;20.60
70986;DHT22;58645;43.068;25.610;2024-03-29T09:48:42;33.30;21.40
70986;DHT22;58645;43.068;25.610;2024-03-29T09:51:35;32.80;21.80
70986;DHT22;58645;43.068;25.610;2024-03-29T09:54:03;32.40;22.10
70986;DHT22;58645;43.068;25.610;2024-03-29T09:56:37;32.50;21.10
70986;DHT22;58645;43.068;25.610;2024-03-29T09:59:06;32.50;22.20
70986;DHT22;58645;43.068;25.610;2024-03-29T10:01:32;32.80;21.60
70986;DHT22;58645;43.068;25.610;2024-03-29T10:04:02;33.10;22.10
70986;DHT22;58645;43.068;25.610;2024-03-29T10:06:52;33.40;20.80
70986;DHT22;58645;43.068;25.610;2024-03-29T10:09:22;33.90;19.80
70986;DHT22;58645;43.068;25.610;2024-03-29T10:11:55;33.00;20.30
70986;DHT22;58645;43.068;25.610;2024-03-29T10:14:23;33.70;20.30
70986;DHT22;58645;43.068;25.610;2024-03-29T10:16:51;34.10;19.90
70986;DHT22;58645;43.068;25.610;2024-03-29T10:19:18;34.10;21.10
70986;DHT22;58645;43.068;25.610;2024-03-29T10:21:44;34.20;21.00
70986;DHT22;58645;43.068;25.610;2024-03-29T10:24:16;34.30;19.80
70986;DHT22;58645;43.068;25.610;2024-03-29T10:26:46;33.60;19.60
70986;DHT22;58645;43.068;25.610;2024-03-29T10:32:26;33.30;21.00
70986;DHT22;58645;43.068;25.610;2024-03-29T10:34:58;34.00;20.90
70986;DHT22;58645;43.068;25.610;2024-03-29T10:38:02;34.10;20.30
70986;DHT22;58645;43.068;25.610;2024-03-29T10:40:42;34.00;20.80
70986;DHT22;58645;43.068;25.610;2024-03-29T10:43:11;33.90;20.50
70986;DHT22;58645;43.068;25.610;2024-03-29T10:45:42;34.20;19.40
70986;DHT22;58645;43.068;25.610;2024-03-29T10:48:09;34.10;19.90
70986;DHT22;58645;43.068;25.610;2024-03-29T10:50:36;34.10;20.00
70986;DHT22;58645;43.068;25.610;2024-03-29T10:53:05;33.40;20.10
70986;DHT22;58645;43.068;25.610;2024-03-29T10:55:34;33.90;20.80
70986;DHT22;58645;43.068;25.610;2024-03-29T10:58:02;33.50;20.20
70986;DHT22;58645;43.068;25.610;2024-03-29T11:00:32;33.10;20.90
70986;DHT22;58645;43.068;25.610;2024-03-29T11:03:14;33.40;20.70
70986;DHT22;58645;43.068;25.610;2024-03-29T11:05:54;33.70;20.50
70986;DHT22;58645;43.068;25.610;2024-03-29T11:08:24;33.20;20.90
70986;DHT22;58645;43.068;25.610;2024-03-29T11:10:54;33.30;21.10
70986;DHT22;58645;43.068;25.610;2024-03-29T11:16:04;33.50;21.30
70986;DHT22;58645;43.068;25.610;2024-03-29T11:18:31;33.60;20.10
70986;DHT22;58645;43.068;25.610;2024-03-29T11:20:58;33.30;20.90
70986;DHT22;58645;43.068;25.610;2024-03-29T11:23:25;33.30;21.20
70986;DHT22;58645;43.068;25.610;2024-03-29T11:25:55;33.00;21.00
70986;DHT22;58645;43.068;25.610;2024-03-29T11:28:24;33.40;22.10
70986;DHT22;58645;43.068;25.610;2024-03-29T11:30:53;33.50;20.90
70986;DHT22;58645;43.068;25.610;2024-03-29T11:35:58;33.50;21.00
70986;DHT22;58645;43.068;25.610;2024-03-29T11:38:35;33.50;20.50
70986;DHT22;58645;43.068;25.610;2024-03-29T11:41:11;32.70;22.80
70986;DHT22;58645;43.068;25.610;2024-03-29T11:43:37;33.00;21.60
70986;DHT22;58645;43.068;25.610;2024-03-29T11:46:09;33.20;21.90
70986;DHT22;58645;43.068;25.610;2024-03-29T11:48:35;33.10;21.30
70986;DHT22;58645;43.068;25.610;2024-03-29T11:51:03;33.30;21.60
70986;DHT22;58645;43.068;25.610;2024-03-29T11:53:30;33.50;22.30
70986;DHT22;58645;43.068;25.610;2024-03-29T11:56:00;33.30;21.20
70986;DHT22;58645;43.068;25.610;2024-03-29T11:58:31;32.90;21.40
70986;DHT22;58645;43.068;25.610;2024-03-29T12:00:58;32.60;21.80
70986;DHT22;58645;43.068;25.610;2024-03-29T12:03:26;32.10;23.90
70986;DHT22;58645;43.068;25.610;2024-03-29T12:05:53;32.40;22.10
70986;DHT22;58645;43.068;25.610;2024-03-29T12:08:21;32.30;22.60
70986;DHT22;58645;43.068;25.610;2024-03-29T12:10:47;32.70;22.50
70986;DHT22;58645;43.068;25.610;2024-03-29T12:13:16;32.70;22.50
70986;DHT22;58645;43.068;25.610;2024-03-29T12:15:42;33.20;22.90
70986;DHT22;58645;43.068;25.610;2024-03-29T12:18:09;33.20;21.40
70986;DHT22;58645;43.068;25.610;2024-03-29T12:20:39;33.50;21.40
70986;DHT22;58645;43.068;25.610;2024-03-29T12:23:06;33.70;22.40
70986;DHT22;58645;43.068;25.610;2024-03-29T12:25:33;33.70;21.40
70986;DHT22;58645;43.068;25.610;2024-03-29T12:28:00;33.30;21.70
70986;DHT22;58645;43.068;25.610;2024-03-29T12:30:26;33.30;22.40
70986;DHT22;58645;43.068;25.610;2024-03-29T12:33:05;33.30;21.80
70986;DHT22;58645;43.068;25.610;2024-03-29T12:35:35;33.30;21.50
70986;DHT22;58645;43.068;25.610;2024-03-29T12:38:05;33.20;21.90
70986;DHT22;58645;43.068;25.610;2024-03-29T12:40:34;33.10;22.40
70986;DHT22;58645;43.068;25.610;2024-03-29T12:43:04;32.90;21.20
70986;DHT22;58645;43.068;25.610;2024-03-29T12:45:31;32.70;23.50
70986;DHT22;58645;43.068;25.610;2024-03-29T12:47:57;32.60;21.60
70986;DHT22;58645;43.068;25.610;2024-03-29T12:50:26;32.30;23.90
70986;DHT22;58645;43.068;25.610;2024-03-29T12:53:00;32.30;23.80
70986;DHT22;58645;43.068;25.610;2024-03-29T12:55:28;32.40;23.90
70986;DHT22;58645;43.068;25.610;2024-03-29T12:57:56;31.90;23.10
70986;DHT22;58645;43.068;25.610;2024-03-29T13:00:22;31.20;23.60
70986;DHT22;58645;43.068;25.610;2024-03-29T13:02:49;30.30;24.90
70986;DHT22;58645;43.068;25.610;2024-03-29T13:05:15;29.60;26.50
70986;DHT22;58645;43.068;25.610;2024-03-29T13:07:41;29.20;27.30
70986;DHT22;58645;43.068;25.610;2024-03-29T13:10:08;28.90;28.00
70986;DHT22;58645;43.068;25.610;2024-03-29T13:12:42;28.60;28.20
70986;DHT22;58645;43.068;25.610;2024-03-29T13:15:19;28.30;29.40
70986;DHT22;58645;43.068;25.610;2024-03-29T13:17:47;28.00;30.20
70986;DHT22;58645;43.068;25.610;2024-03-29T13:20:14;27.80;30.60
70986;DHT22;58645;43.068;25.610;2024-03-29T13:22:45;27.70;30.40
70986;DHT22;58645;43.068;25.610;2024-03-29T13:25:18;27.40;30.80
70986;DHT22;58645;43.068;25.610;2024-03-29T13:27:46;27.10;31.80
70986;DHT22;58645;43.068;25.610;2024-03-29T13:30:13;26.90;31.20
70986;DHT22;58645;43.068;25.610;2024-03-29T13:32:42;26.70;32.70
70986;DHT22;58645;43.068;25.610;2024-03-29T13:35:10;26.60;32.70
70986;DHT22;58645;43.068;25.610;2024-03-29T13:37:40;26.40;32.80
70986;DHT22;58645;43.068;25.610;2024-03-29T13:40:07;26.20;33.50
70986;DHT22;58645;43.068;25.610;2024-03-29T13:42:34;26.20;34.40
70986;DHT22;58645;43.068;25.610;2024-03-29T13:45:00;26.20;33.60
70986;DHT22;58645;43.068;25.610;2024-03-29T13:47:26;26.10;33.90
70986;DHT22;58645;43.068;25.610;2024-03-29T13:49:51;26.00;34.30
70986;DHT22;58645;43.068;25.610;2024-03-29T13:52:19;25.80;34.00
70986;DHT22;58645;43.068;25.610;2024-03-29T13:54:45;25.80;33.90
70986;DHT22;58645;43.068;25.610;2024-03-29T13:57:19;25.60;34.30
70986;DHT22;58645;43.068;25.610;2024-03-29T13:59:45;25.50;34.50
70986;DHT22;58645;43.068;25.610;2024-03-29T14:02:18;25.40;34.50
70986;DHT22;58645;43.068;25.610;2024-03-29T14:04:45;25.30;34.90
70986;DHT22;58645;43.068;25.610;2024-03-29T14:07:12;25.30;35.50
70986;DHT22;58645;43.068;25.610;2024-03-29T14:09:42;25.30;35.90
70986;DHT22;58645;43.068;25.610;2024-03-29T14:12:09;25.20;34.90
70986;DHT22;58645;43.068;25.610;2024-03-29T14:14:35;25.10;35.20
70986;DHT22;58645;43.068;25.610;2024-03-29T14:17:01;25.10;35.40
70986;DHT22;58645;43.068;25.610;2024-03-29T14:19:32;25.00;35.50
70986;DHT22;58645;43.068;25.610;2024-03-29T14:21:59;24.90;36.10
70986;DHT22;58645;43.068;25.610;2024-03-29T14:24:25;24.90;35.90
70986;DHT22;58645;43.068;25.610;2024-03-29T14:26:52;24.90;35.70
70986;DHT22;58645;43.068;25.610;2024-03-29T14:29:18;24.80;36.60
70986;DHT22;58645;43.068;25.610;2024-03-29T14:31:50;24.80;36.20
70986;DHT22;58645;43.068;25.610;2024-03-29T14:34:17;24.90;36.60
70986;DHT22;58645;43.068;25.610;2024-03-29T14:36:43;24.90;36.40
70986;DHT22;58645;43.068;25.610;2024-03-29T14:39:10;25.00;36.70
70986;DHT22;58645;43.068;25.610;2024-03-29T14:41:42;25.10;36.30
70986;DHT22;58645;43.068;25.610;2024-03-29T14:44:09;25.10;36.40
70986;DHT22;58645;43.068;25.610;2024-03-29T14:46:35;25.10;36.10
70986;DHT22;58645;43.068;25.610;2024-03-29T14:49:04;25.10;36.50
70986;DHT22;58645;43.068;25.610;2024-03-29T14:51:35;25.10;36.40
70986;DHT22;58645;43.068;25.610;2024-03-29T14:54:01;25.10;36.50
70986;DHT22;58645;43.068;25.610;2024-03-29T14:56:29;24.90;36.70
70986;DHT22;58645;43.068;25.610;2024-03-29T14:59:03;24.80;37.20
70986;DHT22;58645;43.068;25.610;2024-03-29T15:01:30;24.70;37.00
70986;DHT22;58645;43.068;25.610;2024-03-29T15:03:56;24.70;37.50
70986;DHT22;58645;43.068;25.610;2024-03-29T15:06:23;24.60;37.50
70986;DHT22;58645;43.068;25.610;2024-03-29T15:08:50;24.50;37.30
70986;DHT22;58645;43.068;25.610;2024-03-29T15:11:16;24.50;37.50
70986;DHT22;58645;43.068;25.610;2024-03-29T15:13:41;24.50;37.70
70986;DHT22;58645;43.068;25.610;2024-03-29T15:16:07;24.50;37.70
70986;DHT22;58645;43.068;25.610;2024-03-29T15:18:33;24.40;38.00
70986;DHT22;58645;43.068;25.610;2024-03-29T15:21:00;24.40;38.20
70986;DHT22;58645;43.068;25.610;2024-03-29T15:23:28;24.40;38.80
70986;DHT22;58645;43.068;25.610;2024-03-29T15:25:58;24.30;38.80
70986;DHT22;58645;43.068;25.610;2024-03-29T15:28:25;24.20;39.00
70986;DHT22;58645;43.068;25.610;2024-03-29T15:31:11;24.00;39.80
70986;DHT22;58645;43.068;25.610;2024-03-29T15:33:38;23.90;40.10
70986;DHT22;58645;43.068;25.610;2024-03-29T15:36:04;23.70;40.40
70986;DHT22;58645;43.068;25.610;2024-03-29T15:38:31;23.60;40.80
70986;DHT22;58645;43.068;25.610;2024-03-29T15:40:58;23.40;41.10
70986;DHT22;58645;43.068;25.610;2024-03-29T15:43:25;23.30;41.40
70986;DHT22;58645;43.068;25.610;2024-03-29T15:45:51;23.30;41.80
70986;DHT22;58645;43.068;25.610;2024-03-29T15:48:17;23.20;41.60
70986;DHT22;58645;43.068;25.610;2024-03-29T15:50:44;23.10;41.80